Time;durP1;ratioP1;P1;durP2;ratioP2;P2;SDS_P1;SDS_P2;PMS_P1;PMS_P2;Temp;Humidity;BMP_temperature;BMP_pressure;BME280_temperature;BME280_humidity;BME280_pressure;Samples;Min_cycle;Max_cycle;Signal;HPM_P1;HPM_P2
2023/03/19 00:01:06;;;;;;;7.93;6.38;;;18.10;49.30;;;;;;4972479;28;20271;-84
2023/03/19 00:03:33;;;;;;;7.70;6.60;;;18.00;49.20;;;;;;4988548;28;20232;-84
2023/03/19 00:05:59;;;;;;;7.13;6.38;;;18.10;49.20;;;;;;5004610;28;20168;-84
2023/03/19 00:08:25;;;;;;;8.00;6.65;;;18.10;49.30;;;;;;4972724;28;20523;-84
2023/03/19 00:10:51;;;;;;;8.07;6.90;;;18.00;49.30;;;;;;4989463;28;20164;-84
2023/03/19 00:13:17;;;;;;;7.40;6.55;;;18.10;49.40;;;;;;4988772;28;20198;-83
2023/03/19 00:15:45;;;;;;;8.35;6.85;;;18.10;49.50;;;;;;4972649;28;20175;-84
2023/03/19 00:18:11;;;;;;;7.90;6.68;;;18.00;49.40;;;;;;4972257;28;20180;-83
2023/03/19 00:20:38;;;;;;;8.02;6.78;;;18.10;49.50;;;;;;4987886;28;20264;-84
2023/03/19 00:23:03;;;;;;;7.43;6.35;;;18.00;49.30;;;;;;4988645;28;20219;-84
2023/03/19 00:25:32;;;;;;;7.53;6.65;;;18.00;49.40;;;;;;4988057;28;20179;-84
2023/03/19 00:27:58;;;;;;;8.88;7.13;;;18.00;49.50;;;;;;4988842;28;20615;-84
2023/03/19 00:30:24;;;;;;;8.65;7.00;;;18.00;49.40;;;;;;4988710;28;20168;-83
2023/03/19 00:32:51;;;;;;;7.95;6.55;;;18.10;49.50;;;;;;4972102;28;20179;-83
2023/03/19 00:35:17;;;;;;;7.65;6.28;;;18.00;49.50;;;;;;4988304;28;20168;-83
2023/03/19 00:37:45;;;;;;;8.20;6.78;;;18.10;49.60;;;;;;4988370;28;20614;-84
2023/03/19 00:40:12;;;;;;;7.15;6.20;;;18.00;49.60;;;;;;5003979;28;20201;-84
2023/03/19 00:42:38;;;;;;;8.32;6.80;;;18.10;49.60;;;;;;5004436;28;20147;-83
2023/03/19 00:45:05;;;;;;;7.13;6.10;;;18.00;49.60;;;;;;4987385;28;20186;-84
2023/03/19 00:47:33;;;;;;;7.78;6.40;;;18.00;49.60;;;;;;5004024;28;20190;-84
2023/03/19 00:49:58;;;;;;;6.93;6.20;;;18.00;49.60;;;;;;4987782;28;20171;-84
2023/03/19 00:52:26;;;;;;;8.77;6.88;;;18.00;49.50;;;;;;4987593;28;20238;-84
2023/03/19 00:54:52;;;;;;;8.88;6.80;;;18.00;49.50;;;;;;4987714;28;20170;-84
2023/03/19 00:57:18;;;;;;;7.80;6.70;;;18.00;49.60;;;;;;4987408;28;20194;-84
2023/03/19 00:59:44;;;;;;;6.65;5.95;;;18.00;49.60;;;;;;4987872;28;20685;-83
2023/03/19 01:02:10;;;;;;;7.82;6.47;;;18.00;49.60;;;;;;4987917;28;20176;-84
2023/03/19 01:04:35;;;;;;;7.57;6.40;;;18.00;49.60;;;;;;4987231;28;20167;-84
2023/03/19 01:07:02;;;;;;;7.55;6.20;;;18.00;49.60;;;;;;4971528;28;20230;-84
2023/03/19 01:09:28;;;;;;;7.60;6.78;;;18.00;49.60;;;;;;4970993;28;20569;-84
2023/03/19 01:11:53;;;;;;;7.60;6.47;;;18.00;49.70;;;;;;4987745;28;20677;-85
2023/03/19 01:14:20;;;;;;;8.68;6.43;;;18.00;49.60;;;;;;4986923;28;20167;-84
2023/03/19 01:16:45;;;;;;;8.02;6.60;;;18.00;49.60;;;;;;4986971;28;20171;-84
2023/03/19 01:19:11;;;;;;;7.20;6.47;;;18.00;49.70;;;;;;4971618;28;20181;-84
2023/03/19 01:21:37;;;;;;;7.22;6.47;;;18.00;49.70;;;;;;4972525;28;20199;-84
2023/03/19 01:24:03;;;;;;;8.57;6.88;;;18.00;49.70;;;;;;4987727;28;20199;-84
2023/03/19 01:26:28;;;;;;;7.43;6.32;;;17.90;49.70;;;;;;4988016;28;20160;-84
2023/03/19 01:28:55;;;;;;;8.05;6.53;;;18.00;49.70;;;;;;4988034;28;20575;-84
2023/03/19 01:31:21;;;;;;;7.65;6.85;;;17.90;49.70;;;;;;4974424;28;20183;-84
2023/03/19 01:33:46;;;;;;;8.43;6.53;;;17.90;49.70;;;;;;4974791;28;20207;-84
2023/03/19 01:36:13;;;;;;;8.65;6.45;;;18.00;49.80;;;;;;4974675;28;20234;-84
2023/03/19 01:38:39;;;;;;;7.45;6.40;;;18.00;49.80;;;;;;4974325;28;20164;-84
2023/03/19 01:41:05;;;;;;;7.10;6.40;;;18.00;49.80;;;;;;4990349;28;20282;-84
2023/03/19 01:43:31;;;;;;;8.23;6.32;;;18.00;49.80;;;;;;4991353;28;20209;-84
2023/03/19 01:46:00;;;;;;;7.10;6.30;;;17.80;49.70;;;;;;4991627;28;20213;-84
2023/03/19 01:48:47;;;;;;;7.20;6.30;;;17.90;49.80;;;;;;4991144;28;20163;-84
2023/03/19 01:51:15;;;;;;;7.43;6.32;;;17.90;49.80;;;;;;4977137;28;20194;-84
2023/03/19 01:53:42;;;;;;;7.07;6.35;;;17.90;49.80;;;;;;4975358;28;20171;-84
2023/03/19 01:56:15;;;;;;;7.72;6.15;;;17.90;49.80;;;;;;4991370;28;20166;-84
2023/03/19 01:58:41;;;;;;;8.07;6.07;;;17.90;49.80;;;;;;5006458;28;20166;-84
2023/03/19 02:01:09;;;;;;;6.15;5.55;;;17.90;49.80;;;;;;4974044;28;20721;-84
2023/03/19 02:03:36;;;;;;;7.80;6.63;;;17.90;49.80;;;;;;4975165;28;20156;-83
2023/03/19 02:06:02;;;;;;;7.35;6.25;;;17.90;49.90;;;;;;4990630;28;20561;-84
2023/03/19 02:08:31;;;;;;;7.07;5.85;;;17.90;49.90;;;;;;4974513;28;20156;-84
2023/03/19 02:11:00;;;;;;;7.57;6.47;;;17.90;49.90;;;;;;5006878;28;20213;-84
2023/03/19 02:13:26;;;;;;;7.20;6.28;;;17.90;49.90;;;;;;5006693;28;20684;-84
2023/03/19 02:15:53;;;;;;;7.75;6.60;;;18.00;50.00;;;;;;4990610;28;20183;-84
2023/03/19 02:18:20;;;;;;;6.75;5.85;;;17.90;50.00;;;;;;4990684;28;20164;-84
2023/03/19 02:21:06;;;;;;;6.97;6.20;;;17.90;50.00;;;;;;4974280;28;20191;-84
2023/03/19 02:23:45;;;;;;;7.20;5.97;;;17.90;50.00;;;;;;5005820;28;20521;-85
2023/03/19 02:26:14;;;;;;;7.28;6.30;;;17.90;49.90;;;;;;4991430;28;20163;-84
2023/03/19 02:28:43;;;;;;;7.15;6.32;;;17.90;49.90;;;;;;4973512;28;20205;-84
2023/03/19 02:31:09;;;;;;;7.85;6.60;;;17.90;49.90;;;;;;4990429;28;20224;-84
2023/03/19 02:33:36;;;;;;;7.00;6.00;;;17.80;49.90;;;;;;4990311;28;20163;-84
2023/03/19 02:36:04;;;;;;;7.15;6.25;;;17.90;49.90;;;;;;4989786;28;20182;-84
2023/03/19 02:38:32;;;;;;;6.68;5.72;;;17.90;50.00;;;;;;4973368;28;20634;-84
2023/03/19 02:41:03;;;;;;;6.97;5.95;;;17.80;49.90;;;;;;4989600;28;20580;-84
2023/03/19 02:43:30;;;;;;;6.97;6.28;;;17.90;50.00;;;;;;4989880;28;20152;-84
2023/03/19 02:45:56;;;;;;;6.90;6.03;;;17.80;50.00;;;;;;4974348;28;20167;-84
2023/03/19 02:48:22;;;;;;;7.85;6.57;;;17.80;50.00;;;;;;4989982;28;20247;-84
2023/03/19 02:50:48;;;;;;;7.03;6.25;;;17.90;50.10;;;;;;4989860;28;20163;-84
2023/03/19 02:53:14;;;;;;;6.68;5.63;;;17.80;50.00;;;;;;4989643;28;20251;-84
2023/03/19 02:55:42;;;;;;;7.85;6.28;;;17.90;50.10;;;;;;4973830;28;20164;-84
2023/03/19 02:58:08;;;;;;;6.90;5.80;;;17.90;50.10;;;;;;4989980;28;20160;-84
2023/03/19 03:00:33;;;;;;;7.03;6.05;;;17.90;50.00;;;;;;4988366;28;20227;-84
2023/03/19 03:02:59;;;;;;;7.45;6.18;;;17.80;50.10;;;;;;5005417;28;20190;-84
2023/03/19 03:05:25;;;;;;;6.88;6.18;;;17.80;50.10;;;;;;4988731;28;20163;-84
2023/03/19 03:07:51;;;;;;;7.03;5.97;;;17.80;50.10;;;;;;4972816;28;20225;-84
2023/03/19 03:10:17;;;;;;;7.45;6.10;;;17.80;50.10;;;;;;4973089;28;20167;-84
2023/03/19 03:12:43;;;;;;;6.35;5.70;;;17.80;50.10;;;;;;4973419;28;20182;-83
2023/03/19 03:15:10;;;;;;;7.10;6.07;;;17.80;50.10;;;;;;4989243;28;20163;-84
2023/03/19 03:17:37;;;;;;;6.82;6.03;;;17.80;50.10;;;;;;4989254;28;20186;-84
2023/03/19 03:20:05;;;;;;;6.97;5.90;;;17.80;50.20;;;;;;4973041;28;20199;-84
2023/03/19 03:22:31;;;;;;;7.15;6.13;;;17.80;50.10;;;;;;4989957;28;20159;-84
2023/03/19 03:24:57;;;;;;;8.35;6.38;;;17.80;50.20;;;;;;4989327;28;20169;-84
2023/03/19 03:27:23;;;;;;;6.80;5.80;;;17.80;50.10;;;;;;4989075;28;20229;-84
2023/03/19 03:29:49;;;;;;;6.97;6.25;;;17.80;50.20;;;;;;4973582;28;20179;-84
2023/03/19 03:32:16;;;;;;;6.95;5.95;;;17.80;50.30;;;;;;4973270;28;20165;-84
2023/03/19 03:34:42;;;;;;;6.80;6.10;;;17.80;50.20;;;;;;4988497;28;20235;-84
2023/03/19 03:37:08;;;;;;;7.38;6.00;;;17.70;50.30;;;;;;4972961;28;20196;-84
2023/03/19 03:39:33;;;;;;;7.10;6.22;;;17.80;50.20;;;;;;4988589;28;20243;-84
2023/03/19 03:42:00;;;;;;;6.85;5.57;;;17.80;50.30;;;;;;5005426;28;20206;-84
2023/03/19 03:44:26;;;;;;;7.53;6.40;;;17.80;50.20;;;;;;4972155;28;20170;-84
2023/03/19 03:46:53;;;;;;;6.82;5.95;;;17.80;50.20;;;;;;4972563;28;20175;-84
2023/03/19 03:49:19;;;;;;;7.18;6.00;;;17.80;50.20;;;;;;4989516;28;20170;-84
2023/03/19 03:51:46;;;;;;;7.13;5.80;;;17.80;50.40;;;;;;5005232;28;20163;-84
2023/03/19 03:54:14;;;;;;;6.65;5.80;;;17.70;50.30;;;;;;4988069;28;20160;-84
2023/03/19 03:56:41;;;;;;;6.78;5.85;;;17.80;50.20;;;;;;4989203;28;20156;-84
2023/03/19 03:59:06;;;;;;;7.65;5.97;;;17.70;50.10;;;;;;4968999;28;20694;-84
2023/03/19 04:01:35;;;;;;;6.68;5.93;;;17.80;50.20;;;;;;4969055;28;20196;-84
2023/03/19 04:04:01;;;;;;;7.65;5.88;;;17.70;50.20;;;;;;4969809;28;20184;-84
2023/03/19 04:06:30;;;;;;;6.88;6.15;;;17.80;50.30;;;;;;4969301;28;20679;-84
2023/03/19 04:08:57;;;;;;;7.13;5.80;;;17.80;50.40;;;;;;4953536;28;20168;-84
2023/03/19 04:11:24;;;;;;;8.15;6.30;;;17.80;50.30;;;;;;4968990;28;20183;-84
2023/03/19 04:13:51;;;;;;;7.35;5.88;;;17.80;50.40;;;;;;4969140;28;20172;-84
2023/03/19 04:16:17;;;;;;;6.38;5.47;;;17.70;50.30;;;;;;4953099;28;20259;-84
2023/03/19 04:18:43;;;;;;;6.72;5.88;;;17.80;50.40;;;;;;4953215;28;20168;-84
2023/03/19 04:21:12;;;;;;;7.22;5.95;;;17.70;50.30;;;;;;4968480;28;20271;-84
2023/03/19 04:23:39;;;;;;;6.63;5.85;;;17.80;50.40;;;;;;4952280;28;20199;-84
2023/03/19 04:26:06;;;;;;;7.07;5.78;;;17.80;50.50;;;;;;4968686;28;20227;-84
2023/03/19 04:28:32;;;;;;;7.25;5.95;;;17.70;50.40;;;;;;4969535;28;20164;-84
2023/03/19 04:31:00;;;;;;;6.10;5.50;;;17.80;50.40;;;;;;4953040;28;20179;-84
2023/03/19 04:33:27;;;;;;;6.15;5.47;;;17.80;50.30;;;;;;4969022;28;20201;-85
2023/03/19 04:35:54;;;;;;;6.38;5.65;;;17.70;50.40;;;;;;4953195;28;20168;-83
2023/03/19 04:38:21;;;;;;;6.53;5.78;;;17.80;50.40;;;;;;4969202;28;20168;-84
2023/03/19 04:40:48;;;;;;;7.53;5.95;;;17.80;50.50;;;;;;4952600;28;20195;-84
2023/03/19 04:43:14;;;;;;;7.00;5.97;;;17.80;50.40;;;;;;4952229;28;20171;-84
2023/03/19 04:45:41;;;;;;;7.25;6.13;;;17.80;50.50;;;;;;4953362;28;20171;-84
2023/03/19 04:48:07;;;;;;;6.70;6.00;;;17.70;50.50;;;;;;4969175;28;20161;-84
2023/03/19 04:50:33;;;;;;;6.72;5.88;;;17.80;50.40;;;;;;4953401;28;20232;-84
2023/03/19 04:52:59;;;;;;;7.00;5.65;;;17.70;50.40;;;;;;4952591;28;20188;-84
2023/03/19 04:55:26;;;;;;;7.53;6.18;;;17.70;50.40;;;;;;4968773;28;20171;-84
2023/03/19 04:57:52;;;;;;;6.60;5.88;;;17.80;50.50;;;;;;4953502;28;20512;-84
2023/03/19 05:00:19;;;;;;;7.00;5.63;;;17.80;50.50;;;;;;4981482;28;20227;-84
2023/03/19 05:02:47;;;;;;;6.32;5.45;;;17.80;50.50;;;;;;4972991;28;20171;-84
2023/03/19 05:05:12;;;;;;;7.22;6.07;;;17.80;50.50;;;;;;4989057;28;20151;-83
2023/03/19 05:07:38;;;;;;;6.50;5.68;;;17.80;50.50;;;;;;4992503;28;20175;-84
2023/03/19 05:10:06;;;;;;;7.53;6.32;;;17.70;50.50;;;;;;4976312;28;20618;-84
2023/03/19 05:12:31;;;;;;;6.50;5.38;;;17.70;50.40;;;;;;5008463;28;20156;-84
2023/03/19 05:14:57;;;;;;;7.22;5.93;;;17.80;50.40;;;;;;4975900;28;20182;-84
2023/03/19 05:17:23;;;;;;;6.60;5.78;;;17.70;50.50;;;;;;4976685;28;20171;-84
2023/03/19 05:19:49;;;;;;;7.95;6.03;;;17.70;50.40;;;;;;4976002;28;20178;-84
2023/03/19 05:22:14;;;;;;;7.00;5.90;;;17.70;50.50;;;;;;5007370;28;20160;-83
2023/03/19 05:24:40;;;;;;;7.03;6.20;;;17.70;50.50;;;;;;4992334;28;20174;-84
2023/03/19 05:27:06;;;;;;;6.75;6.03;;;17.70;50.50;;;;;;4991608;28;20191;-84
2023/03/19 05:29:33;;;;;;;6.65;5.95;;;17.70;50.50;;;;;;4992246;28;20168;-84
2023/03/19 05:32:01;;;;;;;7.28;5.70;;;17.70;50.60;;;;;;4975941;28;20156;-84
2023/03/19 05:34:28;;;;;;;6.70;5.50;;;17.70;50.50;;;;;;5008111;28;20152;-84
2023/03/19 05:36:54;;;;;;;7.00;5.95;;;17.70;50.60;;;;;;4991539;28;20641;-84
2023/03/19 05:39:20;;;;;;;6.93;5.90;;;17.70;50.70;;;;;;4974964;28;20258;-84
2023/03/19 05:41:48;;;;;;;6.22;5.60;;;17.70;50.50;;;;;;4991374;28;20207;-84
2023/03/19 05:44:15;;;;;;;6.75;5.53;;;17.70;50.50;;;;;;4991354;28;20666;-84
2023/03/19 05:46:45;;;;;;;7.05;5.63;;;17.60;50.60;;;;;;4974977;28;20163;-84
2023/03/19 05:49:12;;;;;;;6.70;5.78;;;17.70;50.60;;;;;;5025177;28;20152;-84
2023/03/19 05:51:37;;;;;;;6.95;5.78;;;17.60;50.60;;;;;;4990222;28;20225;-84
2023/03/19 05:54:03;;;;;;;6.57;5.88;;;17.70;50.60;;;;;;4991337;28;20171;-84
2023/03/19 05:56:29;;;;;;;6.10;5.50;;;17.70;50.60;;;;;;4975239;28;20561;-84
2023/03/19 05:58:55;;;;;;;6.95;5.80;;;17.70;51.00;;;;;;4974672;28;20163;-84
2023/03/19 06:01:22;;;;;;;7.15;5.78;;;17.70;50.60;;;;;;4991469;28;20199;-84
2023/03/19 06:03:47;;;;;;;6.75;5.80;;;17.60;50.50;;;;;;4990641;28;20159;-84
2023/03/19 06:06:13;;;;;;;6.47;5.60;;;17.70;50.60;;;;;;4975439;28;20172;-84
2023/03/19 06:08:41;;;;;;;6.35;5.65;;;17.70;50.60;;;;;;5006646;28;20179;-84
2023/03/19 06:11:07;;;;;;;6.05;5.43;;;17.70;50.60;;;;;;4991574;28;20163;-84
2023/03/19 06:13:33;;;;;;;6.13;5.53;;;17.70;50.50;;;;;;4993661;28;20183;-83
2023/03/19 06:16:01;;;;;;;6.50;5.80;;;17.70;51.20;;;;;;4994157;28;20178;-83
2023/03/19 06:18:28;;;;;;;6.72;5.90;;;17.70;50.50;;;;;;4994064;28;20198;-84
2023/03/19 06:20:53;;;;;;;6.40;5.45;;;17.70;50.60;;;;;;5028090;28;20187;-83
2023/03/19 06:23:19;;;;;;;6.43;5.53;;;17.70;50.70;;;;;;5010182;28;20166;-83
2023/03/19 06:25:45;;;;;;;6.32;5.72;;;17.70;50.60;;;;;;4985332;28;20184;-83
2023/03/19 06:28:11;;;;;;;6.28;5.68;;;17.60;50.70;;;;;;4955188;28;20631;-84
2023/03/19 06:30:37;;;;;;;6.85;6.10;;;17.70;50.50;;;;;;4954623;28;20232;-83
2023/03/19 06:33:03;;;;;;;7.10;5.60;;;17.70;50.60;;;;;;4963738;28;20168;-83
2023/03/19 06:35:31;;;;;;;6.38;5.38;;;17.70;50.80;;;;;;4975217;28;20174;-84
2023/03/19 06:37:56;;;;;;;6.35;5.57;;;17.70;50.70;;;;;;5002191;28;20189;-84
2023/03/19 06:40:24;;;;;;;7.07;5.75;;;17.70;50.80;;;;;;4986277;28;20244;-84
2023/03/19 06:42:51;;;;;;;6.00;5.28;;;17.60;50.60;;;;;;4953898;28;20631;-83
2023/03/19 06:45:18;;;;;;;6.97;5.82;;;17.70;50.80;;;;;;4985415;28;20157;-84
2023/03/19 06:47:45;;;;;;;6.70;5.63;;;17.70;50.70;;;;;;4986411;28;20168;-82
2023/03/19 06:50:11;;;;;;;6.35;5.72;;;17.80;50.70;;;;;;4985948;28;20192;-84
2023/03/19 06:52:37;;;;;;;6.35;5.57;;;17.70;50.60;;;;;;4968590;28;20220;-83
2023/03/19 06:55:04;;;;;;;7.45;5.30;;;17.70;50.80;;;;;;4953878;28;20454;-82
2023/03/19 06:57:30;;;;;;;8.20;5.00;;;17.70;50.70;;;;;;4970652;28;20184;-83
2023/03/19 06:59:55;;;;;;;6.10;5.50;;;17.70;50.50;;;;;;4969999;28;20927;-82
2023/03/19 07:02:22;;;;;;;6.47;5.63;;;17.70;50.70;;;;;;4957723;28;20279;-83
2023/03/19 07:04:48;;;;;;;6.35;5.55;;;17.70;50.60;;;;;;4958981;28;20164;-83
2023/03/19 07:07:14;;;;;;;6.90;5.30;;;17.70;50.70;;;;;;4974441;28;20251;-83
2023/03/19 07:09:43;;;;;;;6.85;5.75;;;17.70;50.80;;;;;;4990866;28;20210;-83
2023/03/19 07:12:10;;;;;;;7.07;5.55;;;17.70;50.70;;;;;;4974442;28;20214;-83
2023/03/19 07:14:36;;;;;;;5.88;5.28;;;17.70;50.70;;;;;;4990601;28;20658;-82
2023/03/19 07:17:03;;;;;;;8.52;5.68;;;17.70;50.80;;;;;;4989431;28;20160;-83
2023/03/19 07:19:33;;;;;;;8.07;5.90;;;17.70;50.80;;;;;;4974447;28;20180;-83
2023/03/19 07:22:00;;;;;;;7.05;5.47;;;17.70;50.70;;;;;;4973794;28;20192;-83
2023/03/19 07:24:25;;;;;;;7.93;5.72;;;17.80;50.60;;;;;;5006732;28;20191;-83
2023/03/19 07:26:52;;;;;;;8.95;5.78;;;17.80;50.70;;;;;;4974219;28;20168;-83
2023/03/19 07:29:19;;;;;;;7.15;5.15;;;17.80;50.50;;;;;;5006587;28;20171;-83
2023/03/19 07:31:45;;;;;;;8.98;6.00;;;17.80;50.50;;;;;;4990137;28;20156;-82
2023/03/19 07:34:13;;;;;;;7.07;5.47;;;17.80;50.40;;;;;;4988299;28;20619;-84
2023/03/19 07:36:38;;;;;;;8.52;5.60;;;17.80;50.40;;;;;;5005086;28;20186;-83
2023/03/19 07:39:04;;;;;;;7.88;5.30;;;17.90;50.50;;;;;;4973822;28;20227;-83
2023/03/19 07:41:31;;;;;;;6.40;5.40;;;17.80;50.40;;;;;;4973705;28;20207;-83
2023/03/19 07:43:56;;;;;;;6.70;5.60;;;17.80;50.40;;;;;;4989615;28;20160;-83
2023/03/19 07:46:27;;;;;;;8.38;5.57;;;17.90;50.40;;;;;;4974074;28;20183;-82
2023/03/19 07:48:54;;;;;;;8.30;5.78;;;17.90;50.30;;;;;;4973739;28;20720;-84
2023/03/19 07:51:20;;;;;;;10.35;5.50;;;17.80;50.30;;;;;;5002279;28;20160;-83
2023/03/19 07:53:47;;;;;;;7.22;5.13;;;17.90;51.00;;;;;;4984380;28;20186;-81
2023/03/19 07:56:15;;;;;;;7.60;5.20;;;17.90;50.30;;;;;;4982472;28;20160;-83
2023/03/19 07:58:41;;;;;;;6.55;5.45;;;17.90;50.30;;;;;;4966016;28;20288;-82
2023/03/19 08:01:22;;;;;;;6.72;5.05;;;17.90;50.30;;;;;;4981038;28;20232;-82
2023/03/19 08:03:50;;;;;;;6.20;5.15;;;17.90;50.50;;;;;;4982204;28;20169;-85
2023/03/19 08:06:17;;;;;;;9.02;5.63;;;18.00;50.30;;;;;;4978942;28;20412;-81
2023/03/19 08:08:44;;;;;;;8.35;5.57;;;18.00;50.40;;;;;;4967730;28;20187;-84
2023/03/19 08:11:11;;;;;;;7.57;5.20;;;18.10;50.40;;;;;;4982883;28;20170;-83
2023/03/19 08:13:41;;;;;;;11.10;5.15;;;18.10;50.40;;;;;;4974659;28;20175;-84
2023/03/19 08:16:12;;;;;;;10.38;5.80;;;18.10;50.50;;;;;;4976210;28;20275;-84
2023/03/19 08:18:44;;;;;;;9.07;5.20;;;18.10;50.30;;;;;;4974880;28;20186;-84
2023/03/19 08:21:18;;;;;;;6.45;5.30;;;18.10;50.10;;;;;;4952837;29;20369;-84
2023/03/19 08:23:56;;;;;;;7.72;5.75;;;18.10;50.20;;;;;;4966938;29;20215;-82
2023/03/19 08:26:22;;;;;;;8.25;5.45;;;18.20;50.20;;;;;;4965640;29;20185;-83
2023/03/19 08:28:51;;;;;;;8.23;5.65;;;18.20;50.00;;;;;;4931469;29;20185;-83
2023/03/19 08:31:17;;;;;;;7.72;4.95;;;18.20;50.00;;;;;;4935902;29;20599;-84
2023/03/19 08:33:47;;;;;;;6.15;5.05;;;18.30;50.60;;;;;;4932948;29;20185;-84
2023/03/19 08:36:41;;;;;;;10.77;5.40;;;18.20;50.00;;;;;;4930262;29;20336;-85
2023/03/19 08:39:44;;;;;;;;;;;;;;;;;;;;;
2023/03/19 08:42:47;;;;;;;9.27;4.90;;;18.40;50.00;;;;;;4875791;29;20221;-86
2023/03/19 08:52:35;;;;;;;;;;;;;;;;;;;;;
2023/03/19 08:55:20;;;;;;;;;;;;;;;;;;;;;
2023/03/19 09:01:30;;;;;;;6.85;4.78;;;18.60;50.00;;;;;;4806818;29;20329;-84
2023/03/19 09:05:02;;;;;;;7.80;4.32;;;18.60;49.70;;;;;;4824589;29;20186;-83
2023/03/19 09:07:37;;;;;;;;;;;;;;;;;;;;;
2023/03/19 09:10:17;;;;;;;7.75;4.63;;;18.60;50.20;;;;;;4847925;29;20280;-84
2023/03/19 09:12:45;;;;;;;7.15;4.40;;;18.70;50.40;;;;;;4866053;29;20238;-84
2023/03/19 09:15:12;;;;;;;7.82;4.63;;;18.70;50.50;;;;;;4870431;29;20189;-84
2023/03/19 09:17:44;;;;;;;5.75;4.63;;;18.80;50.20;;;;;;4866969;29;20216;-83
2023/03/19 09:20:10;;;;;;;7.35;4.30;;;18.80;50.00;;;;;;4877118;29;20216;-84
2023/03/19 09:22:37;;;;;;;7.47;4.20;;;18.90;50.00;;;;;;4871608;29;20542;-84
2023/03/19 09:25:03;;;;;;;6.60;4.90;;;18.90;49.80;;;;;;4839094;29;20194;-83
2023/03/19 09:27:29;;;;;;;6.63;4.35;;;18.80;49.90;;;;;;4834994;29;20240;-81
2023/03/19 09:29:55;;;;;;;9.63;3.92;;;18.80;49.90;;;;;;4811868;29;20654;-83
2023/03/19 09:32:21;;;;;;;8.35;4.20;;;18.80;50.00;;;;;;4856687;29;20194;-84
2023/03/19 09:34:48;;;;;;;5.97;3.90;;;18.90;49.90;;;;;;4872854;29;20223;-83
2023/03/19 09:37:14;;;;;;;6.22;4.10;;;18.80;49.80;;;;;;4887559;29;20188;-84
2023/03/19 09:39:43;;;;;;;8.65;3.83;;;18.80;49.90;;;;;;4906160;29;20643;-85
2023/03/19 09:42:27;;;;;;;5.68;3.83;;;18.80;50.10;;;;;;4905938;29;20184;-85
2023/03/19 09:44:53;;;;;;;8.88;3.90;;;18.70;50.00;;;;;;4936349;29;20186;-84
2023/03/19 09:47:30;;;;;;;6.00;4.10;;;18.90;50.00;;;;;;4944170;29;20166;-85
2023/03/19 09:50:15;;;;;;;6.93;3.83;;;18.90;50.10;;;;;;4909763;29;20186;-85
2023/03/19 09:52:48;;;;;;;5.72;3.60;;;18.90;50.00;;;;;;4927613;29;20622;-84
2023/03/19 09:55:46;;;;;;;6.88;3.63;;;18.80;50.20;;;;;;4938154;28;20184;-85
2023/03/19 09:58:17;;;;;;;5.60;4.05;;;18.80;50.40;;;;;;4975539;28;20190;-85
2023/03/19 10:01:16;;;;;;;12.90;4.05;;;18.80;50.40;;;;;;4957221;28;20317;-86
2023/03/19 10:04:04;;;;;;;4.13;3.60;;;18.80;50.40;;;;;;4985386;28;20211;-85
2023/03/19 10:06:39;;;;;;;13.57;4.55;;;18.80;50.50;;;;;;4987693;28;20172;-84
2023/03/19 10:09:35;;;;;;;7.28;3.97;;;18.80;50.60;;;;;;4969311;28;20191;-86
2023/03/19 10:12:13;;;;;;;5.70;4.13;;;18.70;50.50;;;;;;4946266;29;20304;-84
2023/03/19 10:15:00;;;;;;;9.25;3.67;;;18.70;50.70;;;;;;4925966;29;20182;-84
2023/03/19 10:17:30;;;;;;;7.93;3.60;;;18.60;50.80;;;;;;4910386;29;20273;-84
2023/03/19 10:20:16;;;;;;;9.75;3.83;;;18.60;51.00;;;;;;4924830;29;20170;-84
2023/03/19 10:22:50;;;;;;;4.85;3.53;;;18.60;51.00;;;;;;4912686;29;20186;-84
2023/03/19 10:25:21;;;;;;;6.07;3.70;;;18.70;50.70;;;;;;4910050;29;20164;-85
2023/03/19 10:27:58;;;;;;;3.72;3.38;;;18.70;50.70;;;;;;4910272;29;20189;-86
2023/03/19 10:30:34;;;;;;;6.68;3.45;;;18.70;50.30;;;;;;4880467;29;20242;-85
2023/03/19 10:33:23;;;;;;;4.93;3.25;;;18.70;50.20;;;;;;4864925;29;20192;-85
2023/03/19 10:35:56;;;;;;;6.82;3.03;;;18.80;50.40;;;;;;4842634;29;21126;-85
2023/03/19 10:38:32;;;;;;;5.22;2.95;;;18.80;50.00;;;;;;4826414;29;20227;-85
2023/03/19 10:41:21;;;;;;;5.55;3.40;;;18.80;49.80;;;;;;4826252;29;20309;-85
2023/03/19 10:43:52;;;;;;;5.18;3.40;;;18.80;50.40;;;;;;4865917;29;20219;-85
2023/03/19 10:46:21;;;;;;;4.45;3.67;;;18.70;50.50;;;;;;4882809;29;20353;-85
2023/03/19 10:48:48;;;;;;;5.07;3.42;;;18.80;50.40;;;;;;4865806;29;20640;-85
2023/03/19 10:51:17;;;;;;;3.60;3.30;;;18.70;50.10;;;;;;4883067;29;20192;-85
2023/03/19 10:53:45;;;;;;;5.63;3.33;;;18.70;50.10;;;;;;4885102;29;20283;-85
2023/03/19 10:56:19;;;;;;;7.88;3.10;;;18.70;50.30;;;;;;4871111;29;20184;-85
2023/03/19 10:59:04;;;;;;;4.40;3.53;;;18.70;50.20;;;;;;4858068;29;20192;-85
2023/03/19 11:01:34;;;;;;;4.28;2.92;;;18.70;50.30;;;;;;4871510;29;20224;-85
2023/03/19 11:04:17;;;;;;;8.02;3.05;;;18.70;50.50;;;;;;4879722;29;20685;-86
2023/03/19 11:06:55;;;;;;;7.13;3.42;;;18.70;50.50;;;;;;4969484;28;20186;-85
2023/03/19 11:09:34;;;;;;;5.07;3.05;;;18.70;50.70;;;;;;4923995;29;20183;-85
2023/03/19 11:12:32;;;;;;;4.97;3.17;;;18.70;50.90;;;;;;4909559;29;20201;-86
2023/03/19 11:15:06;;;;;;;3.78;3.17;;;18.60;51.10;;;;;;4907583;29;20187;-87
2023/03/19 11:17:47;;;;;;;5.45;3.13;;;18.60;51.20;;;;;;4906113;29;20195;-87
2023/03/19 11:20:38;;;;;;;4.80;3.33;;;18.70;51.40;;;;;;4901198;29;20215;-87
2023/03/19 11:23:19;;;;;;;4.32;3.17;;;18.70;51.20;;;;;;4921366;29;20646;-87
2023/03/19 11:26:52;;;;;;;4.13;3.00;;;18.70;51.20;;;;;;4924901;29;20264;-86
2023/03/19 11:29:43;;;;;;;6.18;3.00;;;18.70;51.20;;;;;;4883359;29;20267;-86
2023/03/19 11:33:12;;;;;;;;;;;;;;;;;;;;;
2023/03/19 11:36:32;;;;;;;;;;;;;;;;;;;;;
2023/03/19 11:39:20;;;;;;;3.13;2.80;;;18.70;51.20;;;;;;4841570;29;20647;-84
2023/03/19 11:42:12;;;;;;;3.40;2.75;;;18.70;51.90;;;;;;4890809;29;20247;-87
2023/03/19 11:45:12;;;;;;;3.35;2.63;;;18.70;51.10;;;;;;4891849;29;20191;-84
2023/03/19 11:48:02;;;;;;;3.20;2.90;;;18.70;51.00;;;;;;4888052;29;20243;-84
2023/03/19 11:50:43;;;;;;;4.18;2.92;;;18.80;51.00;;;;;;4876530;29;20279;-86
2023/03/19 11:53:17;;;;;;;5.45;3.00;;;18.70;50.90;;;;;;4816074;29;20190;-86
2023/03/19 11:56:02;;;;;;;3.30;3.00;;;18.80;50.90;;;;;;4813221;29;20238;-86
2023/03/19 11:58:57;;;;;;;3.53;2.70;;;18.70;51.00;;;;;;4815478;29;20190;-85
2023/03/19 12:01:50;;;;;;;2.92;2.63;;;18.70;50.90;;;;;;4831751;29;20238;-85
2023/03/19 12:04:33;;;;;;;2.97;2.67;;;18.80;51.20;;;;;;4811995;29;20166;-85
2023/03/19 12:07:22;;;;;;;3.10;2.70;;;18.80;50.90;;;;;;4891011;29;20586;-85
2023/03/19 12:10:02;;;;;;;3.35;2.90;;;18.80;50.90;;;;;;4891564;29;20186;-85
2023/03/19 12:12:37;;;;;;;4.18;2.47;;;18.80;50.80;;;;;;4889912;29;20605;-85
2023/03/19 12:15:24;;;;;;;2.85;2.50;;;18.80;50.60;;;;;;4875562;29;20195;-85
2023/03/19 12:17:58;;;;;;;3.97;2.55;;;18.80;50.80;;;;;;4890252;29;20179;-86
2023/03/19 12:20:42;;;;;;;3.08;2.78;;;18.70;50.90;;;;;;4911331;29;20519;-85
2023/03/19 12:23:20;;;;;;;3.17;2.88;;;18.80;50.80;;;;;;4940312;28;20173;-85
2023/03/19 12:26:09;;;;;;;2.83;2.50;;;18.70;50.90;;;;;;4990123;28;20191;-86
2023/03/19 12:28:45;;;;;;;4.18;2.88;;;18.70;50.70;;;;;;4960257;28;20172;-86
2023/03/19 12:31:26;;;;;;;3.15;2.85;;;18.70;50.90;;;;;;4956633;28;20168;-85
2023/03/19 12:34:18;;;;;;;3.42;2.65;;;18.70;50.70;;;;;;4958471;28;20198;-86
2023/03/19 12:36:53;;;;;;;3.00;2.55;;;18.70;50.60;;;;;;4964804;28;20250;-85
2023/03/19 12:39:25;;;;;;;4.75;2.67;;;18.70;50.70;;;;;;4995560;28;20163;-85
2023/03/19 12:41:55;;;;;;;3.58;2.67;;;18.70;50.70;;;;;;4987304;28;20207;-85
2023/03/19 12:44:27;;;;;;;3.20;2.67;;;18.70;50.70;;;;;;4958205;28;20191;-85
2023/03/19 12:46:56;;;;;;;2.90;2.50;;;18.70;50.70;;;;;;4958977;28;20162;-85
2023/03/19 12:49:36;;;;;;;2.92;2.63;;;18.70;50.90;;;;;;4972547;28;20202;-87
2023/03/19 12:52:42;;;;;;;3.13;2.65;;;18.70;50.80;;;;;;4903310;29;20197;-86
2023/03/19 12:55:51;;;;;;;3.03;2.70;;;18.70;51.10;;;;;;4872868;29;20190;-86
2023/03/19 12:58:38;;;;;;;2.80;2.45;;;18.60;51.20;;;;;;4887051;29;20639;-85
2023/03/19 13:01:21;;;;;;;2.92;2.58;;;18.70;50.70;;;;;;4896786;29;20234;-86
2023/03/19 13:03:57;;;;;;;3.17;2.80;;;18.70;50.70;;;;;;4922332;29;20183;-84
2023/03/19 13:06:34;;;;;;;3.75;2.58;;;18.70;50.80;;;;;;4934715;29;20197;-85
2023/03/19 13:09:17;;;;;;;4.45;2.88;;;18.70;50.50;;;;;;4913396;29;20189;-85
2023/03/19 13:12:04;;;;;;;3.90;2.42;;;18.70;50.60;;;;;;4923844;29;20213;-85
2023/03/19 13:15:02;;;;;;;2.78;2.47;;;18.70;50.50;;;;;;4936443;29;20163;-85
2023/03/19 13:17:52;;;;;;;2.88;2.53;;;18.70;50.80;;;;;;4923017;29;20186;-86
2023/03/19 13:20:22;;;;;;;3.10;2.58;;;18.70;50.70;;;;;;4920822;29;20218;-85
2023/03/19 13:22:54;;;;;;;3.00;2.70;;;18.70;50.50;;;;;;4952300;29;20185;-86
2023/03/19 13:25:24;;;;;;;2.75;2.47;;;18.70;50.80;;;;;;4963114;28;20170;-86
2023/03/19 13:27:53;;;;;;;2.67;2.47;;;18.70;50.80;;;;;;4933984;29;20167;-86